createdAt,value
2018-02-11T18:58:01.943Z,49.40
2018-02-11T19:03:01.052Z,51.90
2018-02-11T19:05:28.528Z,52.40
2018-02-11T19:08:58.727Z,40.80
2018-02-11T19:11:27.139Z,40.70
2018-02-11T19:13:54.981Z,49.70
2018-02-11T19:16:23.511Z,58.60
2018-02-11T19:18:52.450Z,67.40
2018-02-11T19:21:25.224Z,73.90
2018-02-11T19:23:52.848Z,77.40
2018-02-11T19:26:20.776Z,79.60
2018-02-11T19:28:53.020Z,81.80
2018-02-11T19:31:22.107Z,83.90
2018-02-11T19:33:53.048Z,86.70
2018-02-11T19:36:23.198Z,88.70
2018-02-11T19:38:52.805Z,90.10
2018-02-11T19:41:22.382Z,90.70
2018-02-11T19:43:51.538Z,91.20
2018-02-11T19:46:19.872Z,91.60
2018-02-11T19:48:48.548Z,92.00
2018-02-11T19:51:19.049Z,91.70
2018-02-11T19:53:47.705Z,92.10
2018-02-11T19:56:16.787Z,91.40
2018-02-11T19:58:45.225Z,91.30
2018-02-11T20:01:13.848Z,91.60
2018-02-11T20:03:42.794Z,92.00
2018-02-11T20:06:12.358Z,92.90
2018-02-11T20:08:40.162Z,93.60
2018-02-11T20:11:08.133Z,93.90
2018-02-11T20:13:36.004Z,94.20
2018-02-11T20:16:03.527Z,94.80
2018-02-11T20:18:32.339Z,95.40
2018-02-11T20:21:00.210Z,95.30
2018-02-11T20:23:29.325Z,95.80
2018-02-11T20:25:59.291Z,96.10
2018-02-11T20:28:28.003Z,96.40
2018-02-11T20:30:56.092Z,96.70
2018-02-11T20:33:24.933Z,96.90
2018-02-11T20:35:53.087Z,97.20
2018-02-11T20:38:24.941Z,96.90
2018-02-11T20:41:01.050Z,97.20
2018-02-11T20:43:28.623Z,97.40
2018-02-11T20:45:57.196Z,97.80
2018-02-11T20:48:29.384Z,97.80
2018-02-11T20:50:57.276Z,97.70
2018-02-11T20:53:25.405Z,98.00
2018-02-11T20:55:55.583Z,98.20
2018-02-11T20:58:25.125Z,98.20
2018-02-11T21:00:54.253Z,98.40
2018-02-11T21:03:24.933Z,98.40
2018-02-11T21:05:53.365Z,98.80
2018-02-11T21:08:23.027Z,98.70
2018-02-11T21:10:52.039Z,98.70
2018-02-11T21:13:21.825Z,98.70
2018-02-11T21:15:51.278Z,98.60
2018-02-11T21:18:19.804Z,98.50
2018-02-11T21:20:50.592Z,98.60
2018-02-11T21:23:20.668Z,98.80
2018-02-11T21:25:54.353Z,98.90
2018-02-11T21:28:25.091Z,98.50
2018-02-11T21:30:56.149Z,98.50
2018-02-11T21:33:25.865Z,98.50
2018-02-11T21:35:56.313Z,98.70
2018-02-11T21:41:01.557Z,99.00
2018-02-11T21:43:30.640Z,98.90
2018-02-11T21:46:01.917Z,98.90
2018-02-11T21:48:32.232Z,98.50
2018-02-11T21:51:01.132Z,98.20
2018-02-11T21:55:41.088Z,97.30
2018-02-11T21:58:11.778Z,96.80
2018-02-11T22:00:43.923Z,96.70
2018-02-11T22:03:16.280Z,96.40
2018-02-11T22:05:45.391Z,96.60
2018-02-11T22:08:14.297Z,96.50
2018-02-11T22:10:42.630Z,96.50
2018-02-11T22:13:10.975Z,96.00
2018-02-11T22:15:40.660Z,96.50
2018-02-11T22:18:10.478Z,96.50
2018-02-11T22:20:42.656Z,96.50
2018-02-11T22:23:15.227Z,96.50
2018-02-11T22:25:46.780Z,96.50
2018-02-11T22:28:16.623Z,96.90
2018-02-11T22:30:48.225Z,97.30
2018-02-11T22:33:22.650Z,97.10
2018-02-11T22:35:52.313Z,97.60
2018-02-11T22:38:22.379Z,97.30
2018-02-11T22:40:52.861Z,97.40
2018-02-11T22:43:22.192Z,97.40
2018-02-11T22:45:58.180Z,97.80
2018-02-11T22:48:26.983Z,97.70
2018-02-11T22:50:57.498Z,97.70
2018-02-11T22:53:26.120Z,97.40
2018-02-11T22:55:58.575Z,97.30
2018-02-11T22:58:27.223Z,97.20
2018-02-11T23:00:57.599Z,96.80
2018-02-11T23:05:54.600Z,96.40
2018-02-11T23:08:22.954Z,96.10
2018-02-11T23:10:53.630Z,95.50
2018-02-11T23:13:22.091Z,95.50
2018-02-11T23:15:51.393Z,95.60
2018-02-11T23:18:20.056Z,95.50
2018-02-11T23:20:49.189Z,95.40
2018-02-11T23:23:17.508Z,95.40
2018-02-11T23:25:47.255Z,95.30
2018-02-11T23:28:15.464Z,95.20
2018-02-11T23:30:45.770Z,95.40
2018-02-11T23:33:13.880Z,95.40
2018-02-11T23:35:45.516Z,95.80
2018-02-11T23:38:19.851Z,95.70
2018-02-11T23:40:48.432Z,96.00
2018-02-11T23:43:16.024Z,95.70
2018-02-11T23:45:44.406Z,95.70
2018-02-11T23:48:11.876Z,96.00
2018-02-11T23:50:39.353Z,95.80
2018-02-11T23:53:06.831Z,95.80
2018-02-11T23:55:34.309Z,95.70
2018-02-11T23:58:07.485Z,95.30
